»·PEaware :: WAT380 KTVL-KTOA

WAT380 :: KTVL-KTOA

FLIGHT INFORMATION

Flight Status: Arrived
Operator:
Walker Air Transport
More flights by this operator :: More flights under this callsign
Pilot: Spencer M. (27733)
Aircraft: BEECH AIRCRAFT PREMIER
(PRM1)
More flights by this aircraft type
Origin: KTVL Lake Tahoe
United States
Destination: KTOA Zamperini
United States
More flights between these airports :: More routes between these airports
Route: RICHY7 TILTS J5 EHF LHS V459 SLI
File this flight plan on PilotEdge
Remarks:
Altitude:
(Current/Filed)
31,000ft
Speed:
(Current/Filed)
380kts
Departed: 26-Oct-21 07:51 PM
Arrived: 26-Oct-21 09:06 PM
Distance/Time
Traveled:
316nm/1:15
Distance/Time
To Go:
Arrived

Flight Plot

Page will automatically refresh every two minutes.

Flight plan parsing failed; only flown route is shown


Map Options




Map Legend


Flown Route
Filed Route
Departure Airport
Arrival Airport
Navaid (VOR, NDB)
Fix

Horizontal Profiles

Position Reports

Time Latitude Longitude Heading Altitude Ground
Speed
26-Oct-21 19:10 38.893692 -119.997101 282 6266ft 0kts
26-Oct-21 19:11 38.893692 -119.997101 282 6266ft 0kts
26-Oct-21 19:12 38.893692 -119.997101 282 6266ft 0kts
26-Oct-21 19:13 38.893692 -119.997101 282 6266ft 0kts
26-Oct-21 19:14 38.893692 -119.997101 282 6266ft 0kts
26-Oct-21 19:15 38.893692 -119.997101 282 6266ft 0kts
26-Oct-21 19:16 38.893692 -119.997101 282 6266ft 0kts
26-Oct-21 19:17 38.893692 -119.997101 282 6266ft 0kts
26-Oct-21 19:18 38.893692 -119.997101 282 6266ft 0kts
26-Oct-21 19:19 38.893692 -119.997101 282 6266ft 0kts
26-Oct-21 19:20 38.893692 -119.997101 282 6266ft 0kts
26-Oct-21 19:21 38.893692 -119.997101 282 6266ft 0kts
26-Oct-21 19:22 38.893692 -119.997101 282 6266ft 0kts
26-Oct-21 19:23 38.893692 -119.997101 282 6266ft 0kts
26-Oct-21 19:24 38.893692 -119.997101 282 6266ft 0kts
26-Oct-21 19:25 38.893692 -119.997101 282 6266ft 0kts
26-Oct-21 19:26 38.893692 -119.997101 282 6266ft 0kts
26-Oct-21 19:27 38.893692 -119.997101 282 6266ft 0kts
26-Oct-21 19:28 38.893692 -119.997101 282 6266ft 0kts
26-Oct-21 19:29 38.893692 -119.997101 282 6266ft 0kts
26-Oct-21 19:30 38.893692 -119.997101 282 6266ft 0kts
26-Oct-21 19:31 38.893692 -119.997101 282 6266ft 0kts
26-Oct-21 19:32 38.893692 -119.997101 282 6266ft 0kts
26-Oct-21 19:33 38.893692 -119.997101 282 6266ft 0kts
26-Oct-21 19:34 38.893692 -119.997101 282 6266ft 0kts
26-Oct-21 19:35 38.893692 -119.997101 282 6266ft 0kts
26-Oct-21 19:36 38.893692 -119.997101 282 6266ft 0kts
26-Oct-21 19:37 38.893692 -119.997101 282 6266ft 0kts
26-Oct-21 19:38 38.893692 -119.997101 282 6266ft 0kts
26-Oct-21 19:39 38.893736 -119.997363 282 6266ft 3kts
26-Oct-21 19:40 38.893127 -119.997767 137 6269ft 0kts
26-Oct-21 19:41 38.892924 -119.997528 138 6267ft 0kts
26-Oct-21 19:42 38.892489 -119.997236 124 6267ft 7kts
26-Oct-21 19:43 38.889264 -119.997698 192 6268ft 15kts
26-Oct-21 19:44 38.884644 -119.999047 192 6272ft 18kts
26-Oct-21 19:45 38.882771 -119.999434 142 6273ft 0kts
26-Oct-21 19:46 38.882771 -119.999434 142 6273ft 0kts
26-Oct-21 19:47 38.882771 -119.999434 142 6273ft 0kts
26-Oct-21 19:48 38.882771 -119.999434 142 6273ft 0kts
26-Oct-21 19:49 38.883350 -119.998374 12 6273ft 28kts
26-Oct-21 19:50 38.918287 -119.993310 344 7232ft 171kts
26-Oct-21 19:51 38.971989 -120.014163 342 9318ft 222kts
26-Oct-21 19:52 39.024929 -120.055756 313 11683ft 229kts
26-Oct-21 19:53 39.067236 -120.114179 312 14178ft 222kts
26-Oct-21 19:54 39.110026 -120.173002 312 16203ft 229kts
26-Oct-21 19:55 39.153652 -120.233020 311 18365ft 223kts
26-Oct-21 19:56 39.191228 -120.296509 288 20092ft 232kts
26-Oct-21 19:57 39.151560 -120.370087 195 20748ft 336kts
26-Oct-21 19:58 39.087239 -120.286222 81 21267ft 385kts
26-Oct-21 19:59 39.089057 -120.146018 120 21326ft 425kts
26-Oct-21 20:00 39.015079 -120.040739 135 21378ft 440kts
26-Oct-21 20:01 38.930107 -119.926383 134 21842ft 440kts
26-Oct-21 20:02 38.845318 -119.811203 134 22309ft 440kts
26-Oct-21 20:03 38.769458 -119.708392 134 23034ft 437kts
26-Oct-21 20:04 38.687820 -119.598075 135 24747ft 413kts
26-Oct-21 20:05 38.594969 -119.520276 178 25639ft 395kts
26-Oct-21 20:06 38.486714 -119.505189 182 27001ft 387kts
26-Oct-21 20:07 38.378621 -119.490507 181 28106ft 392kts
26-Oct-21 20:08 38.269756 -119.475242 181 29018ft 399kts
26-Oct-21 20:09 38.156873 -119.459473 181 29314ft 419kts
26-Oct-21 20:10 38.038004 -119.442818 181 29315ft 438kts
26-Oct-21 20:11 37.915558 -119.425644 180 29315ft 449kts
26-Oct-21 20:12 37.790594 -119.408191 180 29306ft 454kts
26-Oct-21 20:13 37.664657 -119.390691 180 29307ft 457kts
26-Oct-21 20:14 37.538199 -119.373192 180 29308ft 459kts
26-Oct-21 20:15 37.411121 -119.355664 180 29310ft 460kts
26-Oct-21 20:16 37.284821 -119.338313 180 29300ft 460kts
26-Oct-21 20:17 37.158131 -119.320970 180 29289ft 460kts
26-Oct-21 20:18 37.030819 -119.303601 180 29285ft 460kts
26-Oct-21 20:19 36.903752 -119.286325 180 29286ft 460kts
26-Oct-21 20:20 36.775342 -119.268910 180 29277ft 458kts
26-Oct-21 20:21 36.648938 -119.251840 179 29279ft 456kts
26-Oct-21 20:22 36.523328 -119.234941 179 29286ft 455kts
26-Oct-21 20:23 36.397467 -119.218066 179 29291ft 455kts
26-Oct-21 20:24 36.271826 -119.201271 179 29292ft 455kts
26-Oct-21 20:25 36.146217 -119.184533 179 29294ft 455kts
26-Oct-21 20:26 36.020160 -119.167793 179 29295ft 455kts
26-Oct-21 20:27 35.895644 -119.151303 178 29295ft 455kts
26-Oct-21 20:28 35.770214 -119.134738 178 29288ft 454kts
26-Oct-21 20:29 35.644796 -119.118239 179 29290ft 453kts
26-Oct-21 20:30 35.519983 -119.101872 179 29291ft 453kts
26-Oct-21 20:31 35.401712 -119.044378 154 29269ft 464kts
26-Oct-21 20:32 35.288382 -118.968944 153 28182ft 473kts
26-Oct-21 20:33 35.172377 -118.892865 154 25700ft 470kts
26-Oct-21 20:34 35.058351 -118.818902 154 23217ft 458kts
26-Oct-21 20:35 34.948255 -118.747488 153 20735ft 439kts
26-Oct-21 20:36 34.843871 -118.680222 153 18309ft 419kts
26-Oct-21 20:37 34.743846 -118.615804 153 16007ft 396kts
26-Oct-21 20:38 34.648422 -118.555480 154 13939ft 382kts
26-Oct-21 20:39 34.552505 -118.500000 154 11889ft 385kts
26-Oct-21 20:40 34.457046 -118.444438 153 11021ft 374kts
26-Oct-21 20:41 34.363707 -118.390002 153 10642ft 366kts
26-Oct-21 20:42 34.279711 -118.341215 153 9335ft 297kts
26-Oct-21 20:43 34.209070 -118.300226 153 9020ft 279kts
26-Oct-21 20:44 34.135918 -118.257814 153 9009ft 293kts
26-Oct-21 20:45 34.063941 -118.216196 153 9001ft 286kts
26-Oct-21 20:46 33.991420 -118.174343 153 8991ft 269kts
26-Oct-21 20:47 33.927790 -118.171253 192 8397ft 226kts
26-Oct-21 20:48 33.868149 -118.187542 192 7177ft 216kts
26-Oct-21 20:49 33.828583 -118.233512 241 7004ft 218kts
26-Oct-21 20:50 33.797502 -118.299984 241 6854ft 238kts
26-Oct-21 20:51 33.766951 -118.365738 241 5534ft 213kts
26-Oct-21 20:52 33.719477 -118.358999 142 4068ft 200kts
26-Oct-21 20:53 33.676051 -118.320143 142 2997ft 177kts
26-Oct-21 20:54 33.636125 -118.284312 142 3002ft 190kts
26-Oct-21 20:55 33.592627 -118.245131 142 3000ft 197kts
26-Oct-21 20:56 33.552632 -118.201750 94 3007ft 191kts
26-Oct-21 20:57 33.587358 -118.160916 32 2999ft 181kts
26-Oct-21 20:58 33.629916 -118.128982 30 2998ft 178kts
26-Oct-21 20:59 33.672159 -118.152642 330 2546ft 184kts
26-Oct-21 21:00 33.708457 -118.195826 310 1993ft 163kts
26-Oct-21 21:01 33.732965 -118.232558 310 1998ft 128kts
26-Oct-21 21:02 33.755054 -118.265771 309 1726ft 135kts
26-Oct-21 21:03 33.776937 -118.298718 309 960ft 118kts
26-Oct-21 21:04 33.797012 -118.328997 308 256ft 114kts
26-Oct-21 21:05 33.807716 -118.345895 217 90ft 12kts
26-Oct-21 21:06 33.806848 -118.346490 207 94ft 9kts
26-Oct-21 21:07 33.804865 -118.344850 128 105ft 10kts
26-Oct-21 21:08 33.802916 -118.343551 131 117ft 0kts
26-Oct-21 21:09 33.802916 -118.343551 131 117ft 0kts

Navigation Log

Ident Type
Flight plan parsing failed, navigation log unavailable